Terminal Aerodrome Forecast
Issued by NWS

Home | Current Version | Previous Version | Graphics & Text | Print | Product List | Glossary On
Versions: 1 2 3 4 5 6 7 8 9 10 11 12 13
622
FTUS43 KGRB 201508 AAB
TAFAUW
TAF AMD
KAUW 201508Z 2015/2112 07008KT 4SM BR OVC007
      TEMPO 2015/2018 2SM -DZ BR OVC005
     FM201800 28012G22KT P6SM OVC012
     FM202300 30012G21KT P6SM SCT020 OVC035=

USA.gov is the U.S. government's official web portal to all federal, state and local government web resources and services.